sensor_id;sensor_type;location;lat;lon;timestamp;P1;durP1;ratioP1;P2;durP2;ratioP2
43996;SDS011;34318;45.818;15.964;2023-10-19T00:01:16;8.73;;;7.93;;
43996;SDS011;34318;45.818;15.964;2023-10-19T00:03:44;8.57;;;7.78;;
43996;SDS011;34318;45.818;15.964;2023-10-19T00:06:11;9.32;;;8.45;;
43996;SDS011;34318;45.818;15.964;2023-10-19T00:08:39;9.30;;;8.50;;
43996;SDS011;34318;45.818;15.964;2023-10-19T00:11:10;10.07;;;8.05;;
43996;SDS011;34318;45.818;15.964;2023-10-19T00:13:47;9.60;;;8.63;;
43996;SDS011;34318;45.818;15.964;2023-10-19T00:16:20;9.27;;;8.43;;
43996;SDS011;34318;45.818;15.964;2023-10-19T00:18:49;9.75;;;8.35;;
43996;SDS011;34318;45.818;15.964;2023-10-19T00:21:18;8.88;;;8.07;;
43996;SDS011;34318;45.818;15.964;2023-10-19T00:23:47;9.23;;;8.32;;
43996;SDS011;34318;45.818;15.964;2023-10-19T00:26:15;9.20;;;8.40;;
43996;SDS011;34318;45.818;15.964;2023-10-19T00:28:47;9.20;;;8.40;;
43996;SDS011;34318;45.818;15.964;2023-10-19T00:31:19;9.38;;;8.48;;
43996;SDS011;34318;45.818;15.964;2023-10-19T00:33:47;8.90;;;8.20;;
43996;SDS011;34318;45.818;15.964;2023-10-19T00:36:17;9.13;;;8.40;;
43996;SDS011;34318;45.818;15.964;2023-10-19T00:38:47;8.80;;;7.93;;
43996;SDS011;34318;45.818;15.964;2023-10-19T00:41:14;8.35;;;7.65;;
43996;SDS011;34318;45.818;15.964;2023-10-19T00:43:48;8.57;;;7.75;;
43996;SDS011;34318;45.818;15.964;2023-10-19T00:46:16;10.10;;;8.75;;
43996;SDS011;34318;45.818;15.964;2023-10-19T00:48:47;8.95;;;8.00;;
43996;SDS011;34318;45.818;15.964;2023-10-19T00:51:16;9.57;;;8.68;;
43996;SDS011;34318;45.818;15.964;2023-10-19T00:53:54;9.30;;;8.40;;
43996;SDS011;34318;45.818;15.964;2023-10-19T00:56:22;9.18;;;8.05;;
43996;SDS011;34318;45.818;15.964;2023-10-19T00:58:53;9.05;;;8.18;;
43996;SDS011;34318;45.818;15.964;2023-10-19T01:01:27;8.85;;;8.05;;
43996;SDS011;34318;45.818;15.964;2023-10-19T01:03:55;8.77;;;8.05;;
43996;SDS011;34318;45.818;15.964;2023-10-19T01:06:23;8.77;;;7.78;;
43996;SDS011;34318;45.818;15.964;2023-10-19T01:08:50;8.73;;;8.02;;
43996;SDS011;34318;45.818;15.964;2023-10-19T01:11:18;9.90;;;7.55;;
43996;SDS011;34318;45.818;15.964;2023-10-19T01:13:47;8.45;;;7.72;;
43996;SDS011;34318;45.818;15.964;2023-10-19T01:16:14;8.32;;;7.63;;
43996;SDS011;34318;45.818;15.964;2023-10-19T01:18:50;8.52;;;7.63;;
43996;SDS011;34318;45.818;15.964;2023-10-19T01:21:24;8.68;;;7.97;;
43996;SDS011;34318;45.818;15.964;2023-10-19T01:23:54;8.95;;;8.07;;
43996;SDS011;34318;45.818;15.964;2023-10-19T01:26:21;8.85;;;8.00;;
43996;SDS011;34318;45.818;15.964;2023-10-19T01:28:52;7.57;;;6.95;;
43996;SDS011;34318;45.818;15.964;2023-10-19T01:31:27;8.15;;;7.45;;
43996;SDS011;34318;45.818;15.964;2023-10-19T01:33:55;8.27;;;7.57;;
43996;SDS011;34318;45.818;15.964;2023-10-19T01:36:27;8.52;;;7.72;;
43996;SDS011;34318;45.818;15.964;2023-10-19T01:38:58;8.90;;;7.35;;
43996;SDS011;34318;45.818;15.964;2023-10-19T01:41:35;8.48;;;7.72;;
43996;SDS011;34318;45.818;15.964;2023-10-19T01:44:02;8.13;;;7.43;;
43996;SDS011;34318;45.818;15.964;2023-10-19T01:46:34;7.72;;;7.03;;
43996;SDS011;34318;45.818;15.964;2023-10-19T01:49:02;8.00;;;7.30;;
43996;SDS011;34318;45.818;15.964;2023-10-19T01:51:31;7.97;;;7.28;;
43996;SDS011;34318;45.818;15.964;2023-10-19T01:54:05;8.07;;;7.28;;
43996;SDS011;34318;45.818;15.964;2023-10-19T01:56:34;7.97;;;7.28;;
43996;SDS011;34318;45.818;15.964;2023-10-19T01:59:05;9.15;;;7.28;;
43996;SDS011;34318;45.818;15.964;2023-10-19T02:01:35;7.97;;;7.18;;
43996;SDS011;34318;45.818;15.964;2023-10-19T02:04:04;7.40;;;6.70;;
43996;SDS011;34318;45.818;15.964;2023-10-19T02:06:35;8.02;;;7.18;;
43996;SDS011;34318;45.818;15.964;2023-10-19T02:11:56;8.35;;;7.55;;
43996;SDS011;34318;45.818;15.964;2023-10-19T02:14:25;8.40;;;7.53;;
43996;SDS011;34318;45.818;15.964;2023-10-19T02:16:53;7.53;;;6.82;;
43996;SDS011;34318;45.818;15.964;2023-10-19T02:19:26;8.45;;;7.65;;
43996;SDS011;34318;45.818;15.964;2023-10-19T02:21:54;8.68;;;7.88;;
43996;SDS011;34318;45.818;15.964;2023-10-19T02:24:25;7.63;;;7.00;;
43996;SDS011;34318;45.818;15.964;2023-10-19T02:26:56;8.00;;;7.30;;
43996;SDS011;34318;45.818;15.964;2023-10-19T02:29:23;8.55;;;7.75;;
43996;SDS011;34318;45.818;15.964;2023-10-19T02:31:52;7.88;;;7.07;;
43996;SDS011;34318;45.818;15.964;2023-10-19T02:34:21;7.07;;;6.47;;
43996;SDS011;34318;45.818;15.964;2023-10-19T02:36:49;8.52;;;7.28;;
43996;SDS011;34318;45.818;15.964;2023-10-19T02:39:17;7.88;;;7.18;;
43996;SDS011;34318;45.818;15.964;2023-10-19T02:41:47;7.68;;;6.97;;
43996;SDS011;34318;45.818;15.964;2023-10-19T02:44:16;7.65;;;6.97;;
43996;SDS011;34318;45.818;15.964;2023-10-19T02:46:53;7.65;;;6.95;;
43996;SDS011;34318;45.818;15.964;2023-10-19T02:49:26;8.10;;;7.40;;
43996;SDS011;34318;45.818;15.964;2023-10-19T02:51:56;6.82;;;6.32;;
43996;SDS011;34318;45.818;15.964;2023-10-19T02:54:30;8.43;;;7.70;;
43996;SDS011;34318;45.818;15.964;2023-10-19T02:57:01;7.15;;;6.55;;
43996;SDS011;34318;45.818;15.964;2023-10-19T02:59:29;7.40;;;6.80;;
43996;SDS011;34318;45.818;15.964;2023-10-19T03:01:56;6.50;;;5.90;;
43996;SDS011;34318;45.818;15.964;2023-10-19T03:04:29;7.20;;;6.50;;
43996;SDS011;34318;45.818;15.964;2023-10-19T03:06:57;6.97;;;6.38;;
43996;SDS011;34318;45.818;15.964;2023-10-19T03:09:24;6.82;;;6.32;;
43996;SDS011;34318;45.818;15.964;2023-10-19T03:11:54;6.90;;;6.40;;
43996;SDS011;34318;45.818;15.964;2023-10-19T03:14:26;7.25;;;6.55;;
43996;SDS011;34318;45.818;15.964;2023-10-19T03:16:54;7.53;;;6.82;;
43996;SDS011;34318;45.818;15.964;2023-10-19T03:19:22;6.78;;;6.28;;
43996;SDS011;34318;45.818;15.964;2023-10-19T03:21:51;7.00;;;6.40;;
43996;SDS011;34318;45.818;15.964;2023-10-19T03:24:18;7.38;;;6.68;;
43996;SDS011;34318;45.818;15.964;2023-10-19T03:27:08;6.30;;;5.63;;
43996;SDS011;34318;45.818;15.964;2023-10-19T03:29:40;8.30;;;7.45;;
43996;SDS011;34318;45.818;15.964;2023-10-19T03:32:12;7.43;;;6.80;;
43996;SDS011;34318;45.818;15.964;2023-10-19T03:34:40;7.72;;;6.78;;
43996;SDS011;34318;45.818;15.964;2023-10-19T03:37:13;7.38;;;6.68;;
43996;SDS011;34318;45.818;15.964;2023-10-19T03:39:41;6.97;;;6.38;;
43996;SDS011;34318;45.818;15.964;2023-10-19T03:42:12;7.45;;;6.85;;
43996;SDS011;34318;45.818;15.964;2023-10-19T03:44:42;7.07;;;6.47;;
43996;SDS011;34318;45.818;15.964;2023-10-19T03:47:16;6.93;;;6.32;;
43996;SDS011;34318;45.818;15.964;2023-10-19T03:49:54;6.95;;;6.35;;
43996;SDS011;34318;45.818;15.964;2023-10-19T03:52:22;6.72;;;6.22;;
43996;SDS011;34318;45.818;15.964;2023-10-19T03:54:49;6.63;;;6.10;;
43996;SDS011;34318;45.818;15.964;2023-10-19T03:57:17;6.80;;;6.18;;
43996;SDS011;34318;45.818;15.964;2023-10-19T03:59:51;7.10;;;6.22;;
43996;SDS011;34318;45.818;15.964;2023-10-19T04:02:26;6.53;;;5.93;;
43996;SDS011;34318;45.818;15.964;2023-10-19T04:04:56;6.95;;;6.35;;
43996;SDS011;34318;45.818;15.964;2023-10-19T04:07:24;6.70;;;6.13;;
43996;SDS011;34318;45.818;15.964;2023-10-19T04:09:57;7.28;;;6.68;;
43996;SDS011;34318;45.818;15.964;2023-10-19T04:12:37;7.40;;;6.63;;
43996;SDS011;34318;45.818;15.964;2023-10-19T04:15:08;8.50;;;6.85;;
43996;SDS011;34318;45.818;15.964;2023-10-19T04:17:38;7.80;;;7.00;;
43996;SDS011;34318;45.818;15.964;2023-10-19T04:20:06;6.70;;;6.20;;
43996;SDS011;34318;45.818;15.964;2023-10-19T04:23:00;7.82;;;7.03;;
43996;SDS011;34318;45.818;15.964;2023-10-19T04:25:37;8.95;;;7.07;;
43996;SDS011;34318;45.818;15.964;2023-10-19T04:28:05;7.70;;;6.90;;
43996;SDS011;34318;45.818;15.964;2023-10-19T04:30:32;7.57;;;6.78;;
43996;SDS011;34318;45.818;15.964;2023-10-19T04:32:59;8.02;;;7.22;;
43996;SDS011;34318;45.818;15.964;2023-10-19T04:35:28;8.35;;;7.28;;
43996;SDS011;34318;45.818;15.964;2023-10-19T04:38:00;7.88;;;6.82;;
43996;SDS011;34318;45.818;15.964;2023-10-19T04:40:27;7.72;;;7.03;;
43996;SDS011;34318;45.818;15.964;2023-10-19T04:42:55;9.00;;;6.82;;
43996;SDS011;34318;45.818;15.964;2023-10-19T04:45:22;8.40;;;7.60;;
43996;SDS011;34318;45.818;15.964;2023-10-19T04:47:50;7.30;;;6.68;;
43996;SDS011;34318;45.818;15.964;2023-10-19T04:50:19;9.35;;;6.97;;
43996;SDS011;34318;45.818;15.964;2023-10-19T04:52:46;7.72;;;6.97;;
43996;SDS011;34318;45.818;15.964;2023-10-19T04:55:14;8.15;;;7.05;;
43996;SDS011;34318;45.818;15.964;2023-10-19T04:57:41;8.80;;;8.00;;
43996;SDS011;34318;45.818;15.964;2023-10-19T05:00:08;8.23;;;7.47;;
43996;SDS011;34318;45.818;15.964;2023-10-19T05:02:40;10.43;;;7.85;;
43996;SDS011;34318;45.818;15.964;2023-10-19T05:05:08;9.23;;;8.50;;
43996;SDS011;34318;45.818;15.964;2023-10-19T05:07:35;13.68;;;8.15;;
43996;SDS011;34318;45.818;15.964;2023-10-19T05:10:03;9.80;;;8.10;;
43996;SDS011;34318;45.818;15.964;2023-10-19T05:12:32;9.15;;;8.25;;
43996;SDS011;34318;45.818;15.964;2023-10-19T05:14:59;9.38;;;7.78;;
43996;SDS011;34318;45.818;15.964;2023-10-19T05:17:26;10.05;;;9.15;;
43996;SDS011;34318;45.818;15.964;2023-10-19T05:19:54;10.13;;;9.10;;
43996;SDS011;34318;45.818;15.964;2023-10-19T05:22:23;10.98;;;9.80;;
43996;SDS011;34318;45.818;15.964;2023-10-19T05:24:56;10.73;;;9.65;;
43996;SDS011;34318;45.818;15.964;2023-10-19T05:27:23;10.55;;;9.45;;
43996;SDS011;34318;45.818;15.964;2023-10-19T05:29:51;9.45;;;8.60;;
43996;SDS011;34318;45.818;15.964;2023-10-19T05:32:18;10.98;;;9.55;;
43996;SDS011;34318;45.818;15.964;2023-10-19T05:34:46;11.27;;;9.35;;
43996;SDS011;34318;45.818;15.964;2023-10-19T05:37:13;9.65;;;8.82;;
43996;SDS011;34318;45.818;15.964;2023-10-19T05:39:42;9.90;;;8.98;;
43996;SDS011;34318;45.818;15.964;2023-10-19T05:42:10;10.77;;;9.52;;
43996;SDS011;34318;45.818;15.964;2023-10-19T05:44:37;11.57;;;9.10;;
43996;SDS011;34318;45.818;15.964;2023-10-19T05:47:04;16.02;;;10.45;;
43996;SDS011;34318;45.818;15.964;2023-10-19T05:49:32;12.55;;;9.73;;
43996;SDS011;34318;45.818;15.964;2023-10-19T05:52:00;12.20;;;11.05;;
43996;SDS011;34318;45.818;15.964;2023-10-19T05:54:29;12.18;;;10.93;;
43996;SDS011;34318;45.818;15.964;2023-10-19T05:56:57;13.52;;;11.75;;
43996;SDS011;34318;45.818;15.964;2023-10-19T05:59:25;16.05;;;11.30;;
43996;SDS011;34318;45.818;15.964;2023-10-19T06:01:53;12.57;;;11.27;;
43996;SDS011;34318;45.818;15.964;2023-10-19T06:04:20;12.88;;;11.30;;
43996;SDS011;34318;45.818;15.964;2023-10-19T06:06:48;12.18;;;10.82;;
43996;SDS011;34318;45.818;15.964;2023-10-19T06:09:15;11.63;;;10.27;;
43996;SDS011;34318;45.818;15.964;2023-10-19T06:11:44;13.27;;;11.48;;
43996;SDS011;34318;45.818;15.964;2023-10-19T06:14:11;13.05;;;11.73;;
43996;SDS011;34318;45.818;15.964;2023-10-19T06:16:38;11.43;;;10.23;;
43996;SDS011;34318;45.818;15.964;2023-10-19T06:19:06;13.20;;;11.02;;
43996;SDS011;34318;45.818;15.964;2023-10-19T06:21:33;13.48;;;10.77;;
43996;SDS011;34318;45.818;15.964;2023-10-19T06:24:00;12.60;;;11.25;;
43996;SDS011;34318;45.818;15.964;2023-10-19T06:26:29;11.68;;;10.48;;
43996;SDS011;34318;45.818;15.964;2023-10-19T06:28:56;11.35;;;10.25;;
43996;SDS011;34318;45.818;15.964;2023-10-19T06:31:28;13.73;;;11.05;;
43996;SDS011;34318;45.818;15.964;2023-10-19T06:33:56;14.38;;;10.57;;
43996;SDS011;34318;45.818;15.964;2023-10-19T06:36:24;15.50;;;11.43;;
43996;SDS011;34318;45.818;15.964;2023-10-19T06:38:51;12.43;;;10.40;;
43996;SDS011;34318;45.818;15.964;2023-10-19T06:41:21;14.93;;;11.52;;
43996;SDS011;34318;45.818;15.964;2023-10-19T06:43:49;14.73;;;11.65;;
43996;SDS011;34318;45.818;15.964;2023-10-19T06:46:16;12.90;;;11.57;;
43996;SDS011;34318;45.818;15.964;2023-10-19T06:48:43;13.07;;;11.57;;
43996;SDS011;34318;45.818;15.964;2023-10-19T06:51:11;12.80;;;11.50;;
43996;SDS011;34318;45.818;15.964;2023-10-19T06:53:38;12.40;;;11.23;;
43996;SDS011;34318;45.818;15.964;2023-10-19T06:56:05;15.52;;;11.98;;
43996;SDS011;34318;45.818;15.964;2023-10-19T06:58:33;15.75;;;10.82;;
43996;SDS011;34318;45.818;15.964;2023-10-19T07:01:00;14.45;;;10.93;;
43996;SDS011;34318;45.818;15.964;2023-10-19T07:03:34;12.15;;;10.93;;
43996;SDS011;34318;45.818;15.964;2023-10-19T07:06:01;12.63;;;11.25;;
43996;SDS011;34318;45.818;15.964;2023-10-19T07:08:34;11.52;;;10.43;;
43996;SDS011;34318;45.818;15.964;2023-10-19T07:11:01;12.45;;;11.15;;
43996;SDS011;34318;45.818;15.964;2023-10-19T07:13:29;12.55;;;11.07;;
43996;SDS011;34318;45.818;15.964;2023-10-19T07:15:59;12.68;;;11.35;;
43996;SDS011;34318;45.818;15.964;2023-10-19T07:18:27;13.52;;;11.82;;
43996;SDS011;34318;45.818;15.964;2023-10-19T07:20:55;12.35;;;11.13;;
43996;SDS011;34318;45.818;15.964;2023-10-19T07:23:30;14.03;;;11.53;;
43996;SDS011;34318;45.818;15.964;2023-10-19T07:25:57;12.20;;;10.30;;
43996;SDS011;34318;45.818;15.964;2023-10-19T07:28:28;20.08;;;12.57;;
43996;SDS011;34318;45.818;15.964;2023-10-19T07:30:56;16.67;;;12.07;;
43996;SDS011;34318;45.818;15.964;2023-10-19T07:33:26;14.32;;;12.15;;
43996;SDS011;34318;45.818;15.964;2023-10-19T07:35:54;13.85;;;11.55;;
43996;SDS011;34318;45.818;15.964;2023-10-19T07:38:22;15.52;;;12.38;;
43996;SDS011;34318;45.818;15.964;2023-10-19T07:40:50;14.68;;;11.65;;
43996;SDS011;34318;45.818;15.964;2023-10-19T07:43:20;13.82;;;11.48;;
43996;SDS011;34318;45.818;15.964;2023-10-19T07:45:48;14.70;;;11.20;;
43996;SDS011;34318;45.818;15.964;2023-10-19T07:48:16;13.77;;;10.98;;
43996;SDS011;34318;45.818;15.964;2023-10-19T07:50:44;12.60;;;10.82;;
43996;SDS011;34318;45.818;15.964;2023-10-19T07:53:11;15.18;;;11.88;;
43996;SDS011;34318;45.818;15.964;2023-10-19T07:55:39;12.30;;;11.00;;
43996;SDS011;34318;45.818;15.964;2023-10-19T07:58:06;12.82;;;11.13;;
43996;SDS011;34318;45.818;15.964;2023-10-19T08:00:34;11.98;;;10.43;;
43996;SDS011;34318;45.818;15.964;2023-10-19T08:03:02;12.70;;;11.35;;
43996;SDS011;34318;45.818;15.964;2023-10-19T08:05:31;14.77;;;11.95;;
43996;SDS011;34318;45.818;15.964;2023-10-19T08:08:00;14.35;;;11.75;;
43996;SDS011;34318;45.818;15.964;2023-10-19T08:10:30;13.07;;;11.80;;
43996;SDS011;34318;45.818;15.964;2023-10-19T08:12:57;17.42;;;11.88;;
43996;SDS011;34318;45.818;15.964;2023-10-19T08:15:26;13.25;;;11.85;;
43996;SDS011;34318;45.818;15.964;2023-10-19T08:17:55;13.63;;;12.20;;
43996;SDS011;34318;45.818;15.964;2023-10-19T08:20:22;13.10;;;11.75;;
43996;SDS011;34318;45.818;15.964;2023-10-19T08:22:51;14.50;;;11.80;;
43996;SDS011;34318;45.818;15.964;2023-10-19T08:25:19;15.50;;;11.65;;
43996;SDS011;34318;45.818;15.964;2023-10-19T08:27:47;15.13;;;12.77;;
43996;SDS011;34318;45.818;15.964;2023-10-19T08:30:19;18.20;;;12.50;;
43996;SDS011;34318;45.818;15.964;2023-10-19T08:32:51;13.25;;;11.85;;
43996;SDS011;34318;45.818;15.964;2023-10-19T08:35:19;13.25;;;11.50;;
43996;SDS011;34318;45.818;15.964;2023-10-19T08:37:54;12.50;;;11.27;;
43996;SDS011;34318;45.818;15.964;2023-10-19T08:40:24;13.77;;;11.15;;
43996;SDS011;34318;45.818;15.964;2023-10-19T08:42:53;13.25;;;11.85;;
43996;SDS011;34318;45.818;15.964;2023-10-19T08:45:21;13.20;;;12.00;;
43996;SDS011;34318;45.818;15.964;2023-10-19T08:47:53;12.85;;;11.55;;
43996;SDS011;34318;45.818;15.964;2023-10-19T08:50:24;13.53;;;11.83;;
43996;SDS011;34318;45.818;15.964;2023-10-19T08:52:53;12.45;;;11.20;;
43996;SDS011;34318;45.818;15.964;2023-10-19T08:55:21;12.18;;;10.93;;
43996;SDS011;34318;45.818;15.964;2023-10-19T08:58:08;12.13;;;10.95;;
43996;SDS011;34318;45.818;15.964;2023-10-19T09:00:42;13.02;;;11.48;;
43996;SDS011;34318;45.818;15.964;2023-10-19T09:03:14;15.20;;;11.65;;
43996;SDS011;34318;45.818;15.964;2023-10-19T09:05:44;13.32;;;11.95;;
43996;SDS011;34318;45.818;15.964;2023-10-19T09:08:18;13.90;;;11.32;;
43996;SDS011;34318;45.818;15.964;2023-10-19T09:10:48;13.18;;;11.82;;
43996;SDS011;34318;45.818;15.964;2023-10-19T09:13:15;13.20;;;11.63;;
43996;SDS011;34318;45.818;15.964;2023-10-19T09:15:46;15.88;;;10.27;;
43996;SDS011;34318;45.818;15.964;2023-10-19T09:18:21;12.57;;;10.68;;
43996;SDS011;34318;45.818;15.964;2023-10-19T09:20:49;13.63;;;11.13;;
43996;SDS011;34318;45.818;15.964;2023-10-19T09:23:22;11.10;;;9.98;;
43996;SDS011;34318;45.818;15.964;2023-10-19T09:25:50;12.18;;;10.68;;
43996;SDS011;34318;45.818;15.964;2023-10-19T09:28:21;15.95;;;11.50;;
43996;SDS011;34318;45.818;15.964;2023-10-19T09:30:50;13.77;;;10.55;;
43996;SDS011;34318;45.818;15.964;2023-10-19T09:33:18;16.00;;;11.10;;
43996;SDS011;34318;45.818;15.964;2023-10-19T09:35:48;13.65;;;10.63;;
43996;SDS011;34318;45.818;15.964;2023-10-19T09:38:17;11.88;;;10.57;;
43996;SDS011;34318;45.818;15.964;2023-10-19T09:40:54;12.68;;;10.82;;
43996;SDS011;34318;45.818;15.964;2023-10-19T09:43:35;11.82;;;10.63;;
43996;SDS011;34318;45.818;15.964;2023-10-19T09:46:08;11.27;;;10.20;;
43996;SDS011;34318;45.818;15.964;2023-10-19T09:48:39;11.30;;;10.20;;
43996;SDS011;34318;45.818;15.964;2023-10-19T09:51:08;12.93;;;11.10;;
43996;SDS011;34318;45.818;15.964;2023-10-19T09:53:43;12.75;;;10.10;;
43996;SDS011;34318;45.818;15.964;2023-10-19T09:56:14;12.07;;;10.88;;
43996;SDS011;34318;45.818;15.964;2023-10-19T09:58:46;14.90;;;10.00;;
43996;SDS011;34318;45.818;15.964;2023-10-19T10:01:15;12.02;;;10.82;;
43996;SDS011;34318;45.818;15.964;2023-10-19T10:03:43;12.65;;;9.88;;
43996;SDS011;34318;45.818;15.964;2023-10-19T10:06:11;10.82;;;9.52;;
43996;SDS011;34318;45.818;15.964;2023-10-19T10:08:41;15.07;;;10.85;;
43996;SDS011;34318;45.818;15.964;2023-10-19T10:13:45;15.25;;;10.20;;
43996;SDS011;34318;45.818;15.964;2023-10-19T10:16:13;12.20;;;10.10;;
43996;SDS011;34318;45.818;15.964;2023-10-19T10:18:45;14.40;;;9.77;;
43996;SDS011;34318;45.818;15.964;2023-10-19T10:21:15;12.77;;;11.07;;
43996;SDS011;34318;45.818;15.964;2023-10-19T10:23:43;11.07;;;9.70;;
43996;SDS011;34318;45.818;15.964;2023-10-19T10:26:11;11.05;;;9.45;;
43996;SDS011;34318;45.818;15.964;2023-10-19T10:28:40;16.35;;;9.88;;
43996;SDS011;34318;45.818;15.964;2023-10-19T10:31:09;13.13;;;10.68;;
43996;SDS011;34318;45.818;15.964;2023-10-19T10:33:46;16.95;;;11.27;;
43996;SDS011;34318;45.818;15.964;2023-10-19T10:36:14;14.88;;;10.25;;
43996;SDS011;34318;45.818;15.964;2023-10-19T10:38:43;11.07;;;9.13;;
43996;SDS011;34318;45.818;15.964;2023-10-19T10:41:11;12.85;;;10.23;;
43996;SDS011;34318;45.818;15.964;2023-10-19T10:43:49;13.13;;;10.60;;
43996;SDS011;34318;45.818;15.964;2023-10-19T10:46:19;15.70;;;10.35;;
43996;SDS011;34318;45.818;15.964;2023-10-19T10:48:48;10.70;;;9.60;;
43996;SDS011;34318;45.818;15.964;2023-10-19T10:51:16;14.93;;;10.80;;
43996;SDS011;34318;45.818;15.964;2023-10-19T10:53:46;10.20;;;9.30;;
43996;SDS011;34318;45.818;15.964;2023-10-19T10:56:13;11.52;;;9.77;;
43996;SDS011;34318;45.818;15.964;2023-10-19T10:58:41;11.05;;;8.95;;
43996;SDS011;34318;45.818;15.964;2023-10-19T11:01:08;11.05;;;9.50;;
43996;SDS011;34318;45.818;15.964;2023-10-19T11:03:37;11.00;;;9.30;;
43996;SDS011;34318;45.818;15.964;2023-10-19T11:06:07;11.10;;;9.68;;
43996;SDS011;34318;45.818;15.964;2023-10-19T11:08:35;10.00;;;9.07;;
43996;SDS011;34318;45.818;15.964;2023-10-19T11:11:03;9.32;;;8.27;;
43996;SDS011;34318;45.818;15.964;2023-10-19T11:13:31;11.40;;;10.30;;
43996;SDS011;34318;45.818;15.964;2023-10-19T11:16:03;9.90;;;8.98;;
43996;SDS011;34318;45.818;15.964;2023-10-19T11:18:34;10.55;;;8.70;;
43996;SDS011;34318;45.818;15.964;2023-10-19T11:21:02;13.00;;;9.10;;
43996;SDS011;34318;45.818;15.964;2023-10-19T11:23:40;10.82;;;9.73;;
43996;SDS011;34318;45.818;15.964;2023-10-19T11:26:09;12.77;;;11.38;;
43996;SDS011;34318;45.818;15.964;2023-10-19T11:28:37;14.00;;;10.00;;
43996;SDS011;34318;45.818;15.964;2023-10-19T11:31:19;13.95;;;9.93;;
43996;SDS011;34318;45.818;15.964;2023-10-19T11:33:48;10.48;;;9.48;;
43996;SDS011;34318;45.818;15.964;2023-10-19T11:36:16;14.40;;;9.75;;
43996;SDS011;34318;45.818;15.964;2023-10-19T11:38:45;15.02;;;10.20;;
43996;SDS011;34318;45.818;15.964;2023-10-19T11:41:13;15.82;;;9.38;;
43996;SDS011;34318;45.818;15.964;2023-10-19T11:43:41;10.35;;;9.25;;
43996;SDS011;34318;45.818;15.964;2023-10-19T11:46:09;10.73;;;8.85;;
43996;SDS011;34318;45.818;15.964;2023-10-19T11:48:39;12.25;;;9.27;;
43996;SDS011;34318;45.818;15.964;2023-10-19T11:51:08;11.05;;;8.88;;
43996;SDS011;34318;45.818;15.964;2023-10-19T11:53:41;9.70;;;8.80;;
43996;SDS011;34318;45.818;15.964;2023-10-19T11:56:10;10.90;;;8.68;;
43996;SDS011;34318;45.818;15.964;2023-10-19T11:58:39;15.15;;;10.07;;
43996;SDS011;34318;45.818;15.964;2023-10-19T12:01:08;10.43;;;9.35;;
43996;SDS011;34318;45.818;15.964;2023-10-19T12:03:38;10.40;;;9.40;;
43996;SDS011;34318;45.818;15.964;2023-10-19T12:06:12;11.35;;;9.38;;
43996;SDS011;34318;45.818;15.964;2023-10-19T12:08:45;10.45;;;9.27;;
43996;SDS011;34318;45.818;15.964;2023-10-19T12:11:13;18.15;;;10.32;;
43996;SDS011;34318;45.818;15.964;2023-10-19T12:13:45;15.23;;;11.98;;
43996;SDS011;34318;45.818;15.964;2023-10-19T12:16:14;21.60;;;15.60;;
43996;SDS011;34318;45.818;15.964;2023-10-19T12:18:46;51.58;;;23.77;;
43996;SDS011;34318;45.818;15.964;2023-10-19T12:21:15;48.95;;;25.58;;
43996;SDS011;34318;45.818;15.964;2023-10-19T12:23:44;43.05;;;20.98;;
43996;SDS011;34318;45.818;15.964;2023-10-19T12:26:17;37.65;;;22.17;;
43996;SDS011;34318;45.818;15.964;2023-10-19T12:28:46;39.95;;;25.00;;
43996;SDS011;34318;45.818;15.964;2023-10-19T12:31:15;49.20;;;25.15;;
43996;SDS011;34318;45.818;15.964;2023-10-19T12:33:45;36.15;;;26.05;;
43996;SDS011;34318;45.818;15.964;2023-10-19T12:36:13;31.48;;;22.55;;
43996;SDS011;34318;45.818;15.964;2023-10-19T12:38:46;37.95;;;22.17;;
43996;SDS011;34318;45.818;15.964;2023-10-19T12:41:13;30.42;;;21.00;;
43996;SDS011;34318;45.818;15.964;2023-10-19T12:43:40;29.75;;;21.95;;
43996;SDS011;34318;45.818;15.964;2023-10-19T12:46:08;30.80;;;19.80;;
43996;SDS011;34318;45.818;15.964;2023-10-19T12:48:35;34.60;;;22.55;;
43996;SDS011;34318;45.818;15.964;2023-10-19T12:51:02;34.25;;;19.90;;
43996;SDS011;34318;45.818;15.964;2023-10-19T12:53:33;34.60;;;19.85;;
43996;SDS011;34318;45.818;15.964;2023-10-19T12:56:01;29.40;;;20.60;;
43996;SDS011;34318;45.818;15.964;2023-10-19T12:58:30;32.67;;;20.10;;
43996;SDS011;34318;45.818;15.964;2023-10-19T13:00:58;25.13;;;19.23;;
43996;SDS011;34318;45.818;15.964;2023-10-19T13:03:25;26.38;;;17.42;;
43996;SDS011;34318;45.818;15.964;2023-10-19T13:05:54;26.10;;;17.02;;
43996;SDS011;34318;45.818;15.964;2023-10-19T13:08:24;28.17;;;18.92;;
43996;SDS011;34318;45.818;15.964;2023-10-19T13:10:54;27.40;;;17.65;;
43996;SDS011;34318;45.818;15.964;2023-10-19T13:13:33;29.85;;;22.52;;
43996;SDS011;34318;45.818;15.964;2023-10-19T13:16:04;30.95;;;22.13;;
43996;SDS011;34318;45.818;15.964;2023-10-19T13:18:38;28.42;;;20.95;;
43996;SDS011;34318;45.818;15.964;2023-10-19T13:21:06;26.80;;;20.17;;
43996;SDS011;34318;45.818;15.964;2023-10-19T13:23:42;30.33;;;20.23;;
43996;SDS011;34318;45.818;15.964;2023-10-19T13:26:10;34.92;;;20.15;;
43996;SDS011;34318;45.818;15.964;2023-10-19T13:28:44;33.55;;;19.95;;
43996;SDS011;34318;45.818;15.964;2023-10-19T13:31:11;29.42;;;18.30;;
43996;SDS011;34318;45.818;15.964;2023-10-19T13:33:42;32.15;;;19.63;;
43996;SDS011;34318;45.818;15.964;2023-10-19T13:36:11;25.00;;;18.13;;
43996;SDS011;34318;45.818;15.964;2023-10-19T13:38:42;25.67;;;18.58;;
43996;SDS011;34318;45.818;15.964;2023-10-19T13:41:09;30.70;;;17.75;;
43996;SDS011;34318;45.818;15.964;2023-10-19T13:43:40;28.40;;;17.88;;
43996;SDS011;34318;45.818;15.964;2023-10-19T13:46:09;26.17;;;16.30;;
43996;SDS011;34318;45.818;15.964;2023-10-19T13:48:36;24.27;;;15.98;;
43996;SDS011;34318;45.818;15.964;2023-10-19T13:51:05;31.15;;;17.60;;
43996;SDS011;34318;45.818;15.964;2023-10-19T13:53:40;27.13;;;16.55;;
43996;SDS011;34318;45.818;15.964;2023-10-19T13:56:10;22.40;;;16.48;;
43996;SDS011;34318;45.818;15.964;2023-10-19T13:58:38;25.02;;;16.90;;
43996;SDS011;34318;45.818;15.964;2023-10-19T14:01:06;23.52;;;16.60;;
43996;SDS011;34318;45.818;15.964;2023-10-19T14:03:35;21.75;;;16.17;;
43996;SDS011;34318;45.818;15.964;2023-10-19T14:06:04;25.83;;;16.40;;
43996;SDS011;34318;45.818;15.964;2023-10-19T14:08:32;31.05;;;17.23;;
43996;SDS011;34318;45.818;15.964;2023-10-19T14:11:03;23.20;;;16.98;;
43996;SDS011;34318;45.818;15.964;2023-10-19T14:13:30;26.30;;;17.60;;
43996;SDS011;34318;45.818;15.964;2023-10-19T14:15:58;23.20;;;16.88;;
43996;SDS011;34318;45.818;15.964;2023-10-19T14:18:25;18.48;;;16.13;;
43996;SDS011;34318;45.818;15.964;2023-10-19T14:20:54;21.15;;;16.00;;
43996;SDS011;34318;45.818;15.964;2023-10-19T14:23:21;22.23;;;17.92;;
43996;SDS011;34318;45.818;15.964;2023-10-19T14:25:50;24.85;;;19.00;;
43996;SDS011;34318;45.818;15.964;2023-10-19T14:28:18;22.55;;;17.42;;
43996;SDS011;34318;45.818;15.964;2023-10-19T14:30:45;28.52;;;18.05;;
43996;SDS011;34318;45.818;15.964;2023-10-19T14:33:12;29.63;;;18.20;;
43996;SDS011;34318;45.818;15.964;2023-10-19T14:35:39;22.27;;;17.25;;
43996;SDS011;34318;45.818;15.964;2023-10-19T14:38:08;28.75;;;17.05;;